Flight Track Log - Related Links

Times and Time Zones

All times are in EDT time to prevent confusion due to time zone crossing. See the AAY838 flight status page for this flight to view local times or setup timezone preferences in your user account.


Time Position Orientation Groundspeed Altitude Reporting Facility
EDT Latitude Longitude Course Direction KTS MPH feet Rate Location/Type
Thu 07:30:40 AM 27.9333 -82.7000 24° Northeast 173 199 900  Level Tampa TRACON
Thu 07:31:28 AM 27.9667 -82.6833 North 179 206 2,100 1,500 Climbing Tampa TRACON
Thu 07:32:28 AM 28.0167 -82.6667 16° North 205 236 3,600 1,476 Climbing Tampa TRACON
Thu 07:33:34 AM 28.0833 -82.6500 12° North 279 321 5,200 2,065 Climbing Tampa TRACON
Thu 07:35:34 AM 28.2372 -82.6122 12° North 289 333 10,000 2,233 Climbing Jacksonville Center
Thu 07:36:34 AM 28.3206 -82.5931 11° North 294 338 11,900 1,250 Climbing Jacksonville Center
Thu 07:37:34 AM 28.4167 -82.5717 11° North 318 366 12,500 1,400 Climbing Jacksonville Center
Thu 07:38:34 AM 28.5231 -82.5475 11° North 355 409 14,700 1,900 Climbing Jacksonville Center
Thu 07:39:34 AM 28.6294 -82.5519 358° North 369 425 16,300 1,700 Climbing Jacksonville Center
Thu 07:40:34 AM 28.7400 -82.5658 354° North 364 419 18,100 1,550 Climbing Jacksonville Center
Thu 07:41:34 AM 28.8486 -82.5772 355° North 377 434 19,400 1,350 Climbing Jacksonville Center
Thu 07:42:34 AM 28.9614 -82.5889 355° North 388 447 20,800 1,500 Climbing Jacksonville Center
Thu 07:43:34 AM 29.0761 -82.6028 354° North 402 463 22,400 1,450 Climbing Jacksonville Center
Thu 07:44:34 AM 29.1931 -82.6142 355° North 412 474 23,700 1,350 Climbing Jacksonville Center
Thu 07:45:34 AM 29.3122 -82.6233 356° North 417 480 25,100 1,050 Climbing Jacksonville Center
Thu 07:46:34 AM 29.4311 -82.6303 357° North 422 486 25,800 750 Climbing Jacksonville Center
Thu 07:47:34 AM 29.5564 -82.6372 357° North 422 486 26,600 650 Climbing Jacksonville Center
Thu 07:48:34 AM 29.6817 -82.6297 North 439 505 27,100 600 Climbing Jacksonville Center
Thu 07:49:34 AM 29.8111 -82.6219 North 450 518 27,800 750 Climbing Jacksonville Center
Thu 07:50:34 AM 29.9425 -82.6144 North 461 531 28,600 700 Climbing Jacksonville Center
Thu 07:51:34 AM 30.0553 -82.6069 North 461 531 29,200 650 Climbing Jacksonville Center
Thu 07:52:34 AM 30.1869 -82.6017 North 461 531 29,900 650 Climbing Jacksonville Center
Thu 07:53:34 AM 30.3122 -82.5917 North 456 525 30,500 550 Climbing Jacksonville Center
Thu 07:54:34 AM 30.4394 -82.5842 North 456 525 31,000 250 Climbing Jacksonville Center
Thu 07:55:34 AM 30.5667 -82.5742 North 456 525 31,000  Level Jacksonville Center
Thu 07:56:34 AM 30.6900 -82.5664 North 456 525 31,000 -50 Level Jacksonville Center
Thu 07:57:34 AM 30.8153 -82.5586 North 451 519 30,900  Descending Jacksonville Center
Thu 07:58:34 AM 30.9406 -82.5511 North 451 519 31,000  Climbing Jacksonville Center
Thu 07:59:34 AM 31.0636 -82.5433 North 451 519 30,900  Descending Jacksonville Center
Thu 08:00:34 AM 31.1869 -82.5356 North 444 511 31,000  Climbing Jacksonville Center
Thu 08:01:34 AM 31.3100 -82.5278 North 444 511 30,900  Descending Jacksonville Center
Thu 08:02:34 AM 31.4331 -82.5128 North 444 511 31,000 50 Climbing Jacksonville Center
Thu 08:03:34 AM 31.5564 -82.5172 358° North 439 505 31,000  Level Jacksonville Center
Thu 08:05:55 AM 31.8344 -82.6089 344° North 419 482 31,000  Level Atlanta Center
Thu 08:06:55 AM 31.9475 -82.6461 344° North 414 476 31,000  Level Atlanta Center
Thu 08:07:55 AM 32.0542 -82.6811 344° North 414 476 31,000  Level Atlanta Center
Thu 08:08:56 AM 32.1694 -82.7211 344° North 414 476 31,000 150 Level Atlanta Center
Thu 08:09:55 AM 32.2806 -82.7589 344° North 414 476 31,300 504 Climbing Atlanta Center
Thu 08:10:55 AM 32.3914 -82.7942 345° North 414 476 32,000 350 Climbing Atlanta Center
Thu 08:11:55 AM 32.5047 -82.8319 344° North 419 482 32,000  Level Atlanta Center
Thu 08:12:55 AM 32.6008 -82.8653 344° North 413 475 32,000  Level Atlanta Center
Thu 08:13:55 AM 32.7119 -82.9033 344° North 408 470 32,000  Level Atlanta Center
Thu 08:14:55 AM 32.8250 -82.9389 345° North 408 470 32,000  Level Atlanta Center
Thu 08:15:55 AM 32.9381 -82.9794 343° North 413 475 32,000  Level Atlanta Center
Thu 08:16:55 AM 33.0511 -83.0203 343° North 419 482 32,000  Level Atlanta Center
Thu 08:17:55 AM 33.1600 -83.0611 343° North 419 482 32,000  Level Atlanta Center
Thu 08:18:55 AM 33.2731 -83.0997 344° North 419 482 32,000  Level Atlanta Center
Thu 08:19:55 AM 33.3964 -83.1381 345° North 419 482 32,000  Level Atlanta Center
Thu 08:20:56 AM 33.5114 -83.1767 344° North 419 482 32,000  Level Atlanta Center
Thu 08:21:55 AM 33.6203 -83.2131 344° North 419 482 32,000  Level Atlanta Center
Thu 08:22:55 AM 33.7353 -83.2544 343° North 419 482 32,000  Level Atlanta Center
Thu 08:23:55 AM 33.8461 -83.2908 345° North 419 482 32,000  Level Atlanta Center
Thu 08:24:55 AM 33.9592 -83.3300 344° North 419 482 32,000  Level Atlanta Center
Thu 08:25:55 AM 34.0719 -83.3617 347° North 419 482 32,000  Level Atlanta Center
Thu 08:26:55 AM 34.1869 -83.3908 348° North 414 476 32,000  Level Atlanta Center
Thu 08:27:55 AM 34.3019 -83.4253 346° North 414 476 32,000  Level Atlanta Center
Thu 08:28:55 AM 34.4147 -83.4547 348° North 414 476 32,000  Level Atlanta Center
Thu 08:29:55 AM 34.5297 -83.4892 346° North 414 476 32,000  Level Atlanta Center
Thu 08:30:55 AM 34.6447 -83.5211 347° North 414 476 32,000  Level Atlanta Center
Thu 08:31:55 AM 34.7639 -83.5583 346° North 419 482 32,000  Level Atlanta Center
Thu 08:32:55 AM 34.8619 -83.5856 347° North 419 482 32,000  Level Atlanta Center
Thu 08:33:55 AM 34.9747 -83.6231 345° North 419 482 32,000  Level Atlanta Center
Thu 08:34:55 AM 35.0897 -83.6556 347° North 419 482 32,000  Level Atlanta Center
Thu 08:35:55 AM 35.2067 -83.6906 346° North 414 476 32,000  Level Atlanta Center
Thu 08:36:55 AM 35.3194 -83.7256 346° North 414 476 32,000  Level Atlanta Center
Thu 08:37:55 AM 35.4364 -83.7583 347° North 414 476 32,000  Level Atlanta Center
Thu 08:38:55 AM 35.5533 -83.7936 346° North 414 476 32,000  Level Atlanta Center
Thu 08:39:55 AM 35.6681 -83.8267 347° North 419 482 32,000  Level Atlanta Center
Thu 08:40:56 AM 35.7828 -83.8594 347° North 419 482 32,000  Level Atlanta Center
Thu 08:41:55 AM 35.8997 -83.8978 345° North 419 482 32,000  Level Atlanta Center
Thu 08:43:28 AM 36.0531 -84.0047 331° Northwest 414 476 32,000  Level Indianapolis Center
Thu 08:44:30 AM 36.1511 -84.0789 329° Northwest 414 476 32,000  Level Indianapolis Center
Thu 08:45:32 AM 36.2486 -84.1522 329° Northwest 414 476 32,000  Level Indianapolis Center
Thu 08:46:34 AM 36.3678 -84.2397 329° Northwest 414 476 32,000  Level Indianapolis Center
Thu 08:47:36 AM 36.4644 -84.3144 328° Northwest 414 476 32,000  Level Indianapolis Center
Thu 08:48:38 AM 36.5644 -84.3900 329° Northwest 411 473 32,000  Level Indianapolis Center
Thu 08:49:40 AM 36.6550 -84.4739 323° Northwest 407 468 32,000  Level Indianapolis Center
Thu 08:50:42 AM 36.7394 -84.5542 323° Northwest 405 466 32,000  Level Indianapolis Center
Thu 08:51:44 AM 36.8458 -84.6589 322° Northwest 405 466 32,000  Level Indianapolis Center
Thu 08:52:46 AM 36.9336 -84.7447 322° Northwest 405 466 32,000  Level Indianapolis Center
Thu 08:53:48 AM 37.0211 -84.8308 322° Northwest 404 465 32,000  Level Indianapolis Center
Thu 08:54:49 AM 37.1131 -84.9197 322° Northwest 404 465 32,000  Level Indianapolis Center
Thu 08:55:51 AM 37.2006 -85.0067 322° Northwest 403 464 32,000  Level Indianapolis Center
Thu 08:56:53 AM 37.2872 -85.0936 321° Northwest 402 463 32,000  Level Indianapolis Center
Thu 08:57:55 AM 37.3756 -85.1794 322° Northwest 401 461 32,000  Level Indianapolis Center
Thu 08:58:57 AM 37.4764 -85.2806 321° Northwest 400 460 32,000  Level Indianapolis Center
Thu 08:59:59 AM 37.5628 -85.3672 322° Northwest 399 459 32,000  Level Indianapolis Center
Thu 09:01:01 AM 37.6489 -85.4536 322° Northwest 398 458 32,000  Level Indianapolis Center
Thu 09:02:03 AM 37.7303 -85.5350 322° Northwest 398 458 32,000  Level Indianapolis Center
Thu 09:03:05 AM 37.8169 -85.6225 321° Northwest 397 457 32,000  Level Indianapolis Center
Thu 09:04:07 AM 37.9050 -85.7092 322° Northwest 397 457 32,000  Level Indianapolis Center
Thu 09:05:09 AM 38.0078 -85.8133 321° Northwest 397 457 32,000  Level Indianapolis Center
Thu 09:06:11 AM 38.0933 -85.9008 321° Northwest 396 456 32,000  Level Indianapolis Center
Thu 09:07:13 AM 38.1772 -85.9878 321° Northwest 394 453 32,000  Level Indianapolis Center
Thu 09:08:15 AM 38.2633 -86.0767 321° Northwest 394 453 32,000  Level Indianapolis Center
Thu 09:09:17 AM 38.3492 -86.1636 322° Northwest 394 453 32,000  Level Indianapolis Center
Thu 09:10:19 AM 38.4342 -86.2506 321° Northwest 394 453 32,000  Level Indianapolis Center
Thu 09:11:21 AM 38.5353 -86.3553 321° Northwest 393 452 32,000  Level Indianapolis Center
Thu 09:12:23 AM 38.6197 -86.4425 321° Northwest 393 452 32,000  Level Indianapolis Center
Thu 09:13:25 AM 38.7044 -86.5289 322° Northwest 392 451 32,000  Level Indianapolis Center
Thu 09:14:27 AM 38.7883 -86.6178 320° Northwest 392 451 32,000  Level Indianapolis Center
Thu 09:15:29 AM 38.8717 -86.7056 321° Northwest 392 451 32,000  Level Indianapolis Center
Thu 09:16:31 AM 38.9564 -86.7933 321° Northwest 392 451 32,000  Level Indianapolis Center
Thu 09:17:33 AM 39.0575 -86.8997 321° Northwest 392 451 32,000  Level Indianapolis Center
Thu 09:18:35 AM 39.1364 -86.9842 320° Northwest 391 450 32,000  Level Indianapolis Center
Thu 09:19:37 AM 39.2206 -87.0722 321° Northwest 391 450 32,000  Level Indianapolis Center
Thu 09:20:39 AM 39.3044 -87.1633 320° Northwest 391 450 32,000  Level Indianapolis Center
Thu 09:21:41 AM 39.3883 -87.2519 321° Northwest 391 450 32,000  Level Indianapolis Center
Thu 09:22:43 AM 39.4731 -87.3422 321° Northwest 391 450 32,000  Level Indianapolis Center
Thu 09:23:44 AM 39.5731 -87.4511 320° Northwest 391 450 32,000  Level Indianapolis Center
Thu 09:24:46 AM 39.6564 -87.5406 320° Northwest 391 450 32,000  Level Indianapolis Center
Thu 09:25:48 AM 39.7403 -87.6317 320° Northwest 391 450 32,000  Level Indianapolis Center
Thu 09:26:50 AM 39.8247 -87.7222 321° Northwest 391 450 32,000  Level Indianapolis Center
Thu 09:27:52 AM 39.9081 -87.8133 320° Northwest 391 450 32,000  Level Indianapolis Center
Thu 09:28:54 AM 39.9925 -87.9050 320° Northwest 391 450 32,000  Level Indianapolis Center
Thu 09:29:56 AM 40.0750 -87.9961 320° Northwest 391 450 32,000  Level Indianapolis Center
Thu 09:30:58 AM 40.1758 -88.1061 320° Northwest 391 450 32,000  Level Indianapolis Center
Thu 09:32:00 AM 40.2583 -88.1975 320° Northwest 391 450 32,000  Level Indianapolis Center
Thu 09:33:02 AM 40.3400 -88.2892 319° Northwest 390 449 32,000  Level Indianapolis Center
Thu 09:34:11 AM 40.4358 -88.3961 320° Northwest 388 447 32,000  Level Chicago Center
Thu 09:35:13 AM 40.5197 -88.4892 320° Northwest 389 448 32,000  Level Chicago Center
Thu 09:36:15 AM 40.5989 -88.5831 318° Northwest 389 448 32,000  Level Chicago Center
Thu 09:37:17 AM 40.6833 -88.6758 320° Northwest 392 451 32,000  Level Chicago Center
Thu 09:38:19 AM 40.7681 -88.7694 320° Northwest 394 453 32,000  Level Chicago Center
Thu 09:39:21 AM 40.8675 -88.8819 319° Northwest 395 455 32,000  Level Chicago Center
Thu 09:40:23 AM 40.9511 -88.9761 320° Northwest 395 455 32,000  Level Chicago Center
Thu 09:41:25 AM 41.0306 -89.0697 318° Northwest 390 449 32,000  Level Chicago Center
Thu 09:42:27 AM 41.1136 -89.1642 319° Northwest 390 449 32,000  Level Chicago Center
Thu 09:43:28 AM 41.1956 -89.2583 319° Northwest 391 450 32,000  Level Chicago Center
Thu 09:44:30 AM 41.2953 -89.3714 320° Northwest 392 451 32,000  Level Chicago Center
Thu 09:45:32 AM 41.3789 -89.4689 319° Northwest 396 456 32,000  Level Chicago Center
Thu 09:46:34 AM 41.4617 -89.5658 319° Northwest 398 458 32,000  Level Chicago Center
Thu 09:47:36 AM 41.5461 -89.6628 319° Northwest 398 458 32,000  Level Chicago Center
Thu 09:48:38 AM 41.6294 -89.7644 318° Northwest 401 461 32,000  Level Chicago Center
Thu 09:49:40 AM 41.7133 -89.8606 319° Northwest 401 461 32,000  Level Chicago Center
Thu 09:51:44 AM 41.8850 -90.0636 317° Northwest 403 464 32,000  Level Chicago Center
Thu 09:52:46 AM 41.9844 -90.1828 318° Northwest 403 464 32,000  Level Chicago Center
Thu 09:53:47 AM 42.0683 -90.2817 319° Northwest 404 465 32,000  Level Chicago Center
Thu 09:54:49 AM 42.1522 -90.3819 318° Northwest 404 465 32,000  Level Chicago Center
Thu 09:55:51 AM 42.2361 -90.4828 318° Northwest 406 467 32,000  Level Chicago Center
Thu 09:56:53 AM 42.3189 -90.5833 318° Northwest 406 467 32,000  Level Chicago Center
Thu 09:57:55 AM 42.4194 -90.7036 319° Northwest 406 467 32,000  Level Chicago Center
Thu 09:58:57 AM 42.5022 -90.8061 318° Northwest 406 467 32,000  Level Chicago Center
Thu 09:59:59 AM 42.5867 -90.9072 319° Northwest 406 467 32,000  Level Chicago Center
Thu 10:01:01 AM 42.6689 -91.0094 318° Northwest 406 467 32,000  Level Chicago Center
Thu 10:02:03 AM 42.7508 -91.1114 318° Northwest 406 467 32,000  Level Chicago Center
Thu 10:03:05 AM 42.8497 -91.2328 318° Northwest 405 466 32,000  Level Chicago Center
Thu 10:04:07 AM 42.9311 -91.3350 317° Northwest 405 466 32,000  Level Chicago Center
Thu 10:05:08 AM 43.0136 -91.4361 318° Northwest 405 466 32,000  Level Chicago Center
Thu 10:06:10 AM 43.0947 -91.5392 317° Northwest 405 466 32,000  Level Chicago Center
Thu 10:07:07 AM 43.1786 -91.6417 318° Northwest 408 470 32,000  Level Minneapolis Center
Thu 10:08:09 AM 43.2589 -91.7453 317° Northwest 406 467 32,000  Level Minneapolis Center
Thu 10:09:10 AM 43.3575 -91.8692 318° Northwest 405 466 32,000  Level Minneapolis Center
Thu 10:10:12 AM 43.4400 -91.9758 317° Northwest 405 466 32,000  Level Minneapolis Center
Thu 10:11:13 AM 43.5231 -92.0817 317° Northwest 407 468 32,000  Level Minneapolis Center
Thu 10:12:15 AM 43.6069 -92.1864 318° Northwest 411 473 32,000  Level Minneapolis Center
Thu 10:13:17 AM 43.6908 -92.2950 317° Northwest 412 474 32,000  Level Minneapolis Center
Thu 10:14:18 AM 43.7744 -92.4039 317° Northwest 413 475 32,000  Level Minneapolis Center
Thu 10:15:20 AM 43.8683 -92.5261 317° Northwest 414 476 32,000  Level Minneapolis Center
Thu 10:16:21 AM 43.9528 -92.6358 317° Northwest 414 476 32,000  Level Minneapolis Center
Thu 10:17:23 AM 44.0367 -92.7467 316° Northwest 414 476 32,000  Level Minneapolis Center
Thu 10:18:24 AM 44.1208 -92.8575 317° Northwest 418 481 32,000  Level Minneapolis Center
Thu 10:19:26 AM 44.2053 -92.9664 317° Northwest 417 480 32,000  Level Minneapolis Center
Thu 10:20:28 AM 44.2881 -93.0769 316° Northwest 416 479 32,000  Level Minneapolis Center
Thu 10:21:29 AM 44.3883 -93.2097 317° Northwest 414 476 32,000  Level Minneapolis Center
Thu 10:22:31 AM 44.4714 -93.3208 316° Northwest 413 475 32,000  Level Minneapolis Center
Thu 10:23:32 AM 44.5556 -93.4328 317° Northwest 413 475 32,000  Level Minneapolis Center
Thu 10:24:34 AM 44.6400 -93.5464 316° Northwest 413 475 32,000  Level Minneapolis Center
Thu 10:25:36 AM 44.7233 -93.6594 316° Northwest 413 475 32,000  Level Minneapolis Center
Thu 10:26:37 AM 44.8067 -93.7731 316° Northwest 413 475 32,000  Level Minneapolis Center
Thu 10:27:39 AM 44.8889 -93.8853 316° Northwest 413 475 32,000  Level Minneapolis Center
Thu 10:28:40 AM 44.9725 -93.9992 316° Northwest 413 475 32,000  Level Minneapolis Center
Thu 10:29:42 AM 45.0550 -94.1142 315° West 414 476 32,000  Level Minneapolis Center
Thu 10:30:44 AM 45.1386 -94.2286 316° Northwest 414 476 32,000  Level Minneapolis Center
Thu 10:31:45 AM 45.2369 -94.3661 315° West 415 478 32,000  Level Minneapolis Center
Thu 10:32:47 AM 45.3189 -94.4808 315° West 414 476 32,000 -48 Level Minneapolis Center
Thu 10:33:49 AM 45.4008 -94.5958 315° West 414 476 31,900 -585 Descending Minneapolis Center
Thu 10:34:50 AM 45.4842 -94.7117 316° Northwest 417 480 30,800 -1,024 Descending Minneapolis Center
Thu 10:35:52 AM 45.5636 -94.8247 315° West 410 472 29,800 -968 Descending Minneapolis Center
Thu 10:36:54 AM 45.6433 -94.9372 315° West 406 467 28,800 -968 Descending Minneapolis Center
Thu 10:37:56 AM 45.7256 -95.0544 315° West 399 459 27,800 -878 Descending Minneapolis Center
Thu 10:38:57 AM 45.8031 -95.1650 315° West 397 457 27,000 -390 Descending Minneapolis Center
Thu 10:39:59 AM 45.8786 -95.2736 315° West 391 450 27,000 -387 Level Minneapolis Center
Thu 10:41:01 AM 45.9694 -95.4058 315° West 390 449 26,200 -1,694 Descending Minneapolis Center
Thu 10:42:03 AM 46.0475 -95.5147 316° Northwest 390 449 23,500 -2,081 Descending Minneapolis Center
Thu 10:43:05 AM 46.1225 -95.6261 314° West 390 449 21,900 -1,306 Descending Minneapolis Center
Thu 10:44:07 AM 46.1931 -95.7281 315° West 368 423 20,800 -1,220 Descending Minneapolis Center
Thu 10:45:08 AM 46.2681 -95.8394 314° West 367 422 19,400 -1,561 Descending Minneapolis Center
Thu 10:46:10 AM 46.3408 -95.9461 315° West 365 420 17,600 -2,032 Descending Minneapolis Center
Thu 10:47:12 AM 46.4169 -96.0594 314° West 350 403 15,200 -2,516 Descending Minneapolis Center
Thu 10:48:14 AM 46.4881 -96.1633 315° West 349 402 12,400 -2,177 Descending Minneapolis Center
Thu 10:49:16 AM 46.5419 -96.2650 308° West 324 373 10,700 -1,790 Descending Minneapolis Center
Thu 10:50:18 AM 46.5808 -96.3728 298° West 295 339 8,700 -1,839 Descending Minneapolis Center
Thu 10:51:20 AM 46.6189 -96.4761 298° West 277 319 6,900 -1,597 Descending Minneapolis Center
Thu 10:52:22 AM 46.6547 -96.5733 298° West 266 306 5,400 -1,403 Descending Minneapolis Center
Thu 10:53:24 AM 46.6886 -96.6658 298° West 250 288 4,000 -1,258 Descending Minneapolis Center
Thu 10:54:26 AM 46.7189 -96.7506 298° West 247 284 2,800 -581 Descending Minneapolis Center
Thu 10:55:28 AM 46.7603 -96.8244 309° West 229 264 2,800  Level Minneapolis Center
Thu 10:56:29 AM 46.8039 -96.8181 North 151 174 2,800 -244 Level Minneapolis Center
Thu 10:57:31 AM 46.8397 -96.8175 North 128 147 2,300 -581 Descending Minneapolis Center
Thu 10:58:33 AM 46.8714 -96.8167 North 116 133 1,600 -677 Descending Minneapolis Center
Thu 11:00:00 AM 46.9167 -96.8000 326° Northwest  Level FlightAware Approximate

Login

Don't have an account? Register now (free) for customized features, flight alerts, and more!